sensor_id;sensor_type;location;lat;lon;timestamp;pressure;altitude;pressure_sealevel;temperature;humidity
69239;BME280;56349;51.816;-0.026;2023-05-29T00:00:14;102118.66;;;24.51;31.43
69239;BME280;56349;51.816;-0.026;2023-05-29T00:02:39;102122.90;;;24.19;31.50
69239;BME280;56349;51.816;-0.026;2023-05-29T00:05:06;102120.97;;;24.13;31.57
69239;BME280;56349;51.816;-0.026;2023-05-29T00:07:30;102115.29;;;24.08;31.62
69239;BME280;56349;51.816;-0.026;2023-05-29T00:09:55;102117.51;;;24.05;31.66
69239;BME280;56349;51.816;-0.026;2023-05-29T00:12:21;102116.32;;;24.02;31.70
69239;BME280;56349;51.816;-0.026;2023-05-29T00:14:48;102121.50;;;24.25;31.74
69239;BME280;56349;51.816;-0.026;2023-05-29T00:17:13;102126.06;;;23.95;31.79
69239;BME280;56349;51.816;-0.026;2023-05-29T00:19:39;102131.86;;;24.17;31.85
69239;BME280;56349;51.816;-0.026;2023-05-29T00:22:05;102133.82;;;23.86;31.90
69239;BME280;56349;51.816;-0.026;2023-05-29T00:24:31;102134.85;;;23.83;31.95
69239;BME280;56349;51.816;-0.026;2023-05-29T00:26:57;102136.41;;;23.78;32.00
69239;BME280;56349;51.816;-0.026;2023-05-29T00:29:22;102136.19;;;23.73;32.07
69239;BME280;56349;51.816;-0.026;2023-05-29T00:31:48;102137.76;;;23.95;32.12
69239;BME280;56349;51.816;-0.026;2023-05-29T00:34:14;102137.66;;;23.90;32.18
69239;BME280;56349;51.816;-0.026;2023-05-29T00:36:40;102137.51;;;24.06;32.24
69239;BME280;56349;51.816;-0.026;2023-05-29T00:39:06;102137.87;;;23.54;32.30
69239;BME280;56349;51.816;-0.026;2023-05-29T00:41:31;102136.32;;;23.78;32.33
69239;BME280;56349;51.816;-0.026;2023-05-29T00:43:57;102137.29;;;23.96;32.37
69239;BME280;56349;51.816;-0.026;2023-05-29T00:46:23;102139.39;;;23.93;32.42
69239;BME280;56349;51.816;-0.026;2023-05-29T00:48:49;102140.65;;;23.41;32.46
69239;BME280;56349;51.816;-0.026;2023-05-29T00:51:15;102140.84;;;23.66;32.50
69239;BME280;56349;51.816;-0.026;2023-05-29T00:53:41;102141.65;;;23.63;32.52
69239;BME280;56349;51.816;-0.026;2023-05-29T00:56:05;102138.82;;;23.60;32.55
69239;BME280;56349;51.816;-0.026;2023-05-29T00:58:31;102140.13;;;23.79;32.59
69239;BME280;56349;51.816;-0.026;2023-05-29T01:00:56;102138.58;;;23.27;32.62
69239;BME280;56349;51.816;-0.026;2023-05-29T01:03:20;102139.85;;;23.50;32.68
69239;BME280;56349;51.816;-0.026;2023-05-29T01:05:46;102137.87;;;23.70;32.70
69239;BME280;56349;51.816;-0.026;2023-05-29T01:08:12;102135.84;;;23.66;32.73
69239;BME280;56349;51.816;-0.026;2023-05-29T01:10:38;102137.29;;;23.63;32.78
69239;BME280;56349;51.816;-0.026;2023-05-29T01:13:08;102133.34;;;23.39;32.79
69239;BME280;56349;51.816;-0.026;2023-05-29T01:15:39;102129.13;;;23.60;32.79
69239;BME280;56349;51.816;-0.026;2023-05-29T01:18:07;102130.94;;;23.58;32.83
69239;BME280;56349;51.816;-0.026;2023-05-29T01:20:29;102133.44;;;23.34;32.84
69239;BME280;56349;51.816;-0.026;2023-05-29T01:23:01;102131.86;;;23.32;32.87
69239;BME280;56349;51.816;-0.026;2023-05-29T01:25:19;102130.40;;;23.29;32.90
69239;BME280;56349;51.816;-0.026;2023-05-29T01:27:39;102132.25;;;23.27;32.93
69239;BME280;56349;51.816;-0.026;2023-05-29T01:30:06;102129.74;;;23.48;32.94
69239;BME280;56349;51.816;-0.026;2023-05-29T01:32:30;102128.38;;;23.24;32.95
69239;BME280;56349;51.816;-0.026;2023-05-29T01:34:56;102125.01;;;23.44;32.98
69239;BME280;56349;51.816;-0.026;2023-05-29T01:37:22;102123.41;;;23.41;33.00
69239;BME280;56349;51.816;-0.026;2023-05-29T01:39:47;102123.83;;;23.37;33.04
69239;BME280;56349;51.816;-0.026;2023-05-29T01:42:14;102123.75;;;23.33;33.07
69239;BME280;56349;51.816;-0.026;2023-05-29T01:44:40;102122.13;;;23.30;33.11
69239;BME280;56349;51.816;-0.026;2023-05-29T01:47:06;102122.75;;;23.27;33.14
69239;BME280;56349;51.816;-0.026;2023-05-29T01:49:32;102125.23;;;23.25;33.17
69239;BME280;56349;51.816;-0.026;2023-05-29T01:51:58;102124.41;;;23.00;33.18
69239;BME280;56349;51.816;-0.026;2023-05-29T01:54:22;102121.90;;;23.21;33.19
69239;BME280;56349;51.816;-0.026;2023-05-29T01:56:49;102119.56;;;23.19;33.22
69239;BME280;56349;51.816;-0.026;2023-05-29T01:59:14;102117.98;;;23.19;33.22
69239;BME280;56349;51.816;-0.026;2023-05-29T02:01:40;102115.79;;;23.17;33.23
69239;BME280;56349;51.816;-0.026;2023-05-29T02:04:05;102117.51;;;23.15;33.24
69239;BME280;56349;51.816;-0.026;2023-05-29T02:06:31;102114.20;;;23.13;33.27
69239;BME280;56349;51.816;-0.026;2023-05-29T02:08:57;102114.38;;;23.09;33.28
69239;BME280;56349;51.816;-0.026;2023-05-29T02:11:23;102112.56;;;23.08;33.31
69239;BME280;56349;51.816;-0.026;2023-05-29T02:13:49;102111.77;;;23.08;33.31
69239;BME280;56349;51.816;-0.026;2023-05-29T02:16:15;102113.46;;;23.07;33.31
69239;BME280;56349;51.816;-0.026;2023-05-29T02:18:41;102112.38;;;23.05;33.33
69239;BME280;56349;51.816;-0.026;2023-05-29T02:21:07;102111.23;;;23.02;33.36
69239;BME280;56349;51.816;-0.026;2023-05-29T02:23:33;102114.28;;;23.01;33.37
69239;BME280;56349;51.816;-0.026;2023-05-29T02:25:59;102113.88;;;22.99;33.38
69239;BME280;56349;51.816;-0.026;2023-05-29T02:28:24;102117.89;;;22.98;33.40
69239;BME280;56349;51.816;-0.026;2023-05-29T02:30:50;102117.56;;;22.97;33.40
69239;BME280;56349;51.816;-0.026;2023-05-29T02:33:16;102120.05;;;22.96;33.40
69239;BME280;56349;51.816;-0.026;2023-05-29T02:35:42;102120.22;;;22.93;33.43
69239;BME280;56349;51.816;-0.026;2023-05-29T02:38:08;102121.48;;;22.91;33.45
69239;BME280;56349;51.816;-0.026;2023-05-29T02:40:34;102120.82;;;23.15;33.47
69239;BME280;56349;51.816;-0.026;2023-05-29T02:43:00;102123.11;;;22.86;33.50
69239;BME280;56349;51.816;-0.026;2023-05-29T02:45:26;102123.70;;;22.84;33.52
69239;BME280;56349;51.816;-0.026;2023-05-29T02:47:51;102120.64;;;22.81;33.55
69239;BME280;56349;51.816;-0.026;2023-05-29T02:50:17;102119.84;;;22.77;33.58
69239;BME280;56349;51.816;-0.026;2023-05-29T02:52:43;102120.30;;;22.75;33.60
69239;BME280;56349;51.816;-0.026;2023-05-29T02:55:09;102117.32;;;22.75;33.60
69239;BME280;56349;51.816;-0.026;2023-05-29T02:57:35;102117.76;;;22.75;33.59
69239;BME280;56349;51.816;-0.026;2023-05-29T03:00:01;102117.13;;;22.72;33.61
69239;BME280;56349;51.816;-0.026;2023-05-29T03:02:27;102118.40;;;22.69;33.64
69239;BME280;56349;51.816;-0.026;2023-05-29T03:04:53;102119.18;;;22.67;33.66
69239;BME280;56349;51.816;-0.026;2023-05-29T03:07:18;102116.78;;;22.65;33.68
69239;BME280;56349;51.816;-0.026;2023-05-29T03:09:44;102110.81;;;22.63;33.70
69239;BME280;56349;51.816;-0.026;2023-05-29T03:12:10;102108.11;;;23.11;33.70
69239;BME280;56349;51.816;-0.026;2023-05-29T03:14:36;102108.14;;;22.61;33.70
69239;BME280;56349;51.816;-0.026;2023-05-29T03:17:04;102107.13;;;23.08;33.72
69239;BME280;56349;51.816;-0.026;2023-05-29T03:19:28;102110.89;;;22.57;33.73
69239;BME280;56349;51.816;-0.026;2023-05-29T03:21:54;102113.68;;;22.81;33.76
69239;BME280;56349;51.816;-0.026;2023-05-29T03:24:20;102112.07;;;22.53;33.77
69239;BME280;56349;51.816;-0.026;2023-05-29T03:26:45;102110.82;;;23.00;33.77
69239;BME280;56349;51.816;-0.026;2023-05-29T03:29:11;102106.52;;;22.49;33.81
69239;BME280;56349;51.816;-0.026;2023-05-29T03:31:37;102105.35;;;22.49;33.84
69239;BME280;56349;51.816;-0.026;2023-05-29T03:34:03;102106.17;;;22.51;33.89
69239;BME280;56349;51.816;-0.026;2023-05-29T03:36:37;102107.49;;;22.56;33.93
69239;BME280;56349;51.816;-0.026;2023-05-29T03:38:55;102107.32;;;22.65;33.94
69239;BME280;56349;51.816;-0.026;2023-05-29T03:41:21;102105.05;;;22.59;33.84
69239;BME280;56349;51.816;-0.026;2023-05-29T03:43:47;102096.39;;;22.97;33.70
69239;BME280;56349;51.816;-0.026;2023-05-29T03:46:12;102100.59;;;23.16;33.50
69239;BME280;56349;51.816;-0.026;2023-05-29T03:48:38;102105.75;;;23.33;33.29
69239;BME280;56349;51.816;-0.026;2023-05-29T03:51:05;102111.93;;;23.50;33.08
69239;BME280;56349;51.816;-0.026;2023-05-29T03:53:30;102117.71;;;23.40;32.88
69239;BME280;56349;51.816;-0.026;2023-05-29T03:55:55;102120.85;;;23.50;32.72
69239;BME280;56349;51.816;-0.026;2023-05-29T03:58:22;102122.62;;;23.58;32.58
69239;BME280;56349;51.816;-0.026;2023-05-29T04:00:48;102123.42;;;23.36;32.47
69239;BME280;56349;51.816;-0.026;2023-05-29T04:03:13;102121.51;;;23.64;32.40
69239;BME280;56349;51.816;-0.026;2023-05-29T04:05:39;102122.25;;;23.35;32.36
69239;BME280;56349;51.816;-0.026;2023-05-29T04:08:05;102121.91;;;23.61;32.30
69239;BME280;56349;51.816;-0.026;2023-05-29T04:10:31;102120.59;;;23.80;32.28
69239;BME280;56349;51.816;-0.026;2023-05-29T04:12:57;102119.19;;;23.55;32.26
69239;BME280;56349;51.816;-0.026;2023-05-29T04:15:23;102122.78;;;23.73;32.27
69239;BME280;56349;51.816;-0.026;2023-05-29T04:17:49;102123.78;;;23.46;32.28
69239;BME280;56349;51.816;-0.026;2023-05-29T04:20:15;102126.29;;;23.40;32.28
69239;BME280;56349;51.816;-0.026;2023-05-29T04:22:41;102127.73;;;23.36;32.28
69239;BME280;56349;51.816;-0.026;2023-05-29T04:25:08;102127.49;;;23.31;32.31
69239;BME280;56349;51.816;-0.026;2023-05-29T04:27:32;102129.66;;;23.25;32.36
69239;BME280;56349;51.816;-0.026;2023-05-29T04:29:58;102130.74;;;23.41;32.38
69239;BME280;56349;51.816;-0.026;2023-05-29T04:32:24;102136.18;;;23.36;32.43
69239;BME280;56349;51.816;-0.026;2023-05-29T04:34:50;102134.90;;;23.30;32.47
69239;BME280;56349;51.816;-0.026;2023-05-29T04:37:16;102135.35;;;23.23;32.49
69239;BME280;56349;51.816;-0.026;2023-05-29T04:39:42;102137.71;;;22.94;32.54
69239;BME280;56349;51.816;-0.026;2023-05-29T04:42:08;102136.67;;;23.11;32.57
69239;BME280;56349;51.816;-0.026;2023-05-29T04:44:34;102139.05;;;23.06;32.63
69239;BME280;56349;51.816;-0.026;2023-05-29T04:47:00;102140.68;;;23.01;32.66
69239;BME280;56349;51.816;-0.026;2023-05-29T04:49:26;102138.29;;;22.95;32.70
69239;BME280;56349;51.816;-0.026;2023-05-29T04:51:51;102138.57;;;22.92;32.72
69239;BME280;56349;51.816;-0.026;2023-05-29T04:54:17;102139.48;;;22.88;32.75
69239;BME280;56349;51.816;-0.026;2023-05-29T04:56:43;102138.90;;;22.84;32.77
69239;BME280;56349;51.816;-0.026;2023-05-29T04:59:09;102136.45;;;22.81;32.78
69239;BME280;56349;51.816;-0.026;2023-05-29T05:01:35;102136.95;;;22.77;32.84
69239;BME280;56349;51.816;-0.026;2023-05-29T05:04:01;102138.00;;;23.00;32.89
69239;BME280;56349;51.816;-0.026;2023-05-29T05:06:27;102135.87;;;22.68;32.92
69239;BME280;56349;51.816;-0.026;2023-05-29T05:08:54;102138.22;;;22.65;32.96
69239;BME280;56349;51.816;-0.026;2023-05-29T05:11:19;102138.38;;;22.89;33.00
69239;BME280;56349;51.816;-0.026;2023-05-29T05:13:44;102144.26;;;22.87;33.03
69239;BME280;56349;51.816;-0.026;2023-05-29T05:16:10;102141.95;;;22.57;33.06
69239;BME280;56349;51.816;-0.026;2023-05-29T05:18:36;102143.22;;;22.54;33.09
69239;BME280;56349;51.816;-0.026;2023-05-29T05:21:02;102144.49;;;22.78;33.11
69239;BME280;56349;51.816;-0.026;2023-05-29T05:23:27;102144.75;;;22.75;33.15
69239;BME280;56349;51.816;-0.026;2023-05-29T05:25:53;102150.14;;;22.47;33.17
69239;BME280;56349;51.816;-0.026;2023-05-29T05:28:19;102150.98;;;22.45;33.18
69239;BME280;56349;51.816;-0.026;2023-05-29T05:30:45;102157.63;;;22.91;33.20
69239;BME280;56349;51.816;-0.026;2023-05-29T05:33:11;102161.01;;;22.66;33.22
69239;BME280;56349;51.816;-0.026;2023-05-29T05:35:37;102162.81;;;22.38;33.25
69239;BME280;56349;51.816;-0.026;2023-05-29T05:38:02;102167.31;;;22.67;33.23
69239;BME280;56349;51.816;-0.026;2023-05-29T05:40:28;102165.52;;;22.89;33.21
69239;BME280;56349;51.816;-0.026;2023-05-29T05:42:54;102168.47;;;22.86;33.22
69239;BME280;56349;51.816;-0.026;2023-05-29T05:45:20;102169.92;;;22.82;33.25
69239;BME280;56349;51.816;-0.026;2023-05-29T05:47:46;102166.56;;;22.79;33.30
69239;BME280;56349;51.816;-0.026;2023-05-29T05:50:11;102173.19;;;22.76;33.30
69239;BME280;56349;51.816;-0.026;2023-05-29T05:52:37;102176.79;;;22.52;33.33
69239;BME280;56349;51.816;-0.026;2023-05-29T05:55:02;102176.53;;;22.52;33.33
69239;BME280;56349;51.816;-0.026;2023-05-29T05:57:27;102177.28;;;22.24;33.33
69239;BME280;56349;51.816;-0.026;2023-05-29T05:59:53;102179.40;;;22.72;33.34
69239;BME280;56349;51.816;-0.026;2023-05-29T06:02:19;102178.54;;;22.71;33.35
69239;BME280;56349;51.816;-0.026;2023-05-29T06:04:45;102180.67;;;22.47;33.35
69239;BME280;56349;51.816;-0.026;2023-05-29T06:07:11;102182.76;;;22.45;33.36
69239;BME280;56349;51.816;-0.026;2023-05-29T06:09:37;102187.78;;;22.64;33.36
69239;BME280;56349;51.816;-0.026;2023-05-29T06:12:02;102189.54;;;22.40;33.40
69239;BME280;56349;51.816;-0.026;2023-05-29T06:14:27;102187.24;;;22.13;33.41
69239;BME280;56349;51.816;-0.026;2023-05-29T06:16:52;102194.02;;;22.61;33.51
69239;BME280;56349;51.816;-0.026;2023-05-29T06:19:18;102196.10;;;22.61;33.43
69239;BME280;56349;51.816;-0.026;2023-05-29T06:21:44;102195.26;;;22.37;32.90
69239;BME280;56349;51.816;-0.026;2023-05-29T06:24:10;102200.18;;;22.44;30.65
69239;BME280;56349;51.816;-0.026;2023-05-29T06:26:37;102198.57;;;22.21;29.70
69239;BME280;56349;51.816;-0.026;2023-05-29T06:29:01;102199.09;;;21.95;29.28
69239;BME280;56349;51.816;-0.026;2023-05-29T06:31:27;102199.75;;;21.69;29.03
69239;BME280;56349;51.816;-0.026;2023-05-29T06:33:53;102203.65;;;21.46;28.93
69239;BME280;56349;51.816;-0.026;2023-05-29T06:36:19;102205.51;;;21.46;28.75
69239;BME280;56349;51.816;-0.026;2023-05-29T06:38:46;102204.88;;;21.05;28.64
69239;BME280;56349;51.816;-0.026;2023-05-29T06:41:10;102210.24;;;21.07;28.55
69239;BME280;56349;51.816;-0.026;2023-05-29T06:43:35;102202.28;;;20.88;28.53
69239;BME280;56349;51.816;-0.026;2023-05-29T06:46:01;102201.59;;;21.01;28.57
69239;BME280;56349;51.816;-0.026;2023-05-29T06:48:27;102206.43;;;20.60;28.60
69239;BME280;56349;51.816;-0.026;2023-05-29T06:50:53;102201.67;;;20.76;28.60
69239;BME280;56349;51.816;-0.026;2023-05-29T06:53:19;102208.59;;;20.38;28.71
69239;BME280;56349;51.816;-0.026;2023-05-29T06:55:44;102212.01;;;20.59;28.76
69239;BME280;56349;51.816;-0.026;2023-05-29T06:58:10;102214.62;;;20.56;28.83
69239;BME280;56349;51.816;-0.026;2023-05-29T07:00:36;102212.79;;;20.28;28.78
69239;BME280;56349;51.816;-0.026;2023-05-29T07:03:02;102213.86;;;20.54;28.74
69239;BME280;56349;51.816;-0.026;2023-05-29T07:05:28;102211.18;;;20.54;28.77
69239;BME280;56349;51.816;-0.026;2023-05-29T07:07:54;102214.02;;;20.55;28.69
69239;BME280;56349;51.816;-0.026;2023-05-29T07:10:19;102212.98;;;20.53;28.60
69239;BME280;56349;51.816;-0.026;2023-05-29T07:12:45;102211.47;;;20.93;28.44
69239;BME280;56349;51.816;-0.026;2023-05-29T07:15:11;102210.17;;;20.45;28.45
69239;BME280;56349;51.816;-0.026;2023-05-29T07:17:37;102213.58;;;20.43;28.53
69239;BME280;56349;51.816;-0.026;2023-05-29T07:20:03;102212.95;;;20.42;28.37
69239;BME280;56349;51.816;-0.026;2023-05-29T07:22:28;102214.25;;;20.37;28.19
69239;BME280;56349;51.816;-0.026;2023-05-29T07:24:54;102219.77;;;20.79;28.26
69239;BME280;56349;51.816;-0.026;2023-05-29T07:27:26;102218.11;;;20.32;28.13
69239;BME280;56349;51.816;-0.026;2023-05-29T07:29:46;102221.54;;;20.30;28.02
69239;BME280;56349;51.816;-0.026;2023-05-29T07:32:11;102222.19;;;20.29;28.02
69239;BME280;56349;51.816;-0.026;2023-05-29T07:34:37;102222.95;;;20.51;28.10
69239;BME280;56349;51.816;-0.026;2023-05-29T07:37:05;102229.67;;;20.27;28.02
69239;BME280;56349;51.816;-0.026;2023-05-29T07:39:29;102229.29;;;20.26;28.01
69239;BME280;56349;51.816;-0.026;2023-05-29T07:41:55;102226.77;;;20.50;27.98
69239;BME280;56349;51.816;-0.026;2023-05-29T07:44:21;102226.97;;;20.30;27.91
69239;BME280;56349;51.816;-0.026;2023-05-29T07:46:47;102225.19;;;20.54;27.92
69239;BME280;56349;51.816;-0.026;2023-05-29T07:49:13;102231.32;;;20.33;27.93
69239;BME280;56349;51.816;-0.026;2023-05-29T07:51:38;102228.01;;;20.36;27.99
69239;BME280;56349;51.816;-0.026;2023-05-29T07:54:05;102227.17;;;20.42;27.97
69239;BME280;56349;51.816;-0.026;2023-05-29T07:56:30;102222.48;;;20.50;28.09
69239;BME280;56349;51.816;-0.026;2023-05-29T07:58:56;102225.50;;;20.61;28.42
69239;BME280;56349;51.816;-0.026;2023-05-29T08:01:21;102227.59;;;20.73;28.72
69239;BME280;56349;51.816;-0.026;2023-05-29T08:03:47;102228.53;;;20.84;28.91
69239;BME280;56349;51.816;-0.026;2023-05-29T08:06:13;102225.68;;;20.96;29.08
69239;BME280;56349;51.816;-0.026;2023-05-29T08:08:39;102230.42;;;21.06;29.33
69239;BME280;56349;51.816;-0.026;2023-05-29T08:11:04;102226.01;;;21.15;29.42
69239;BME280;56349;51.816;-0.026;2023-05-29T08:13:30;102228.91;;;21.26;29.55
69239;BME280;56349;51.816;-0.026;2023-05-29T08:15:54;102231.64;;;21.10;29.60
69239;BME280;56349;51.816;-0.026;2023-05-29T08:18:20;102233.87;;;21.20;29.67
69239;BME280;56349;51.816;-0.026;2023-05-29T08:20:46;102237.11;;;21.06;29.68
69239;BME280;56349;51.816;-0.026;2023-05-29T08:23:12;102240.89;;;21.34;29.80
69239;BME280;56349;51.816;-0.026;2023-05-29T08:25:38;102240.07;;;21.40;29.78
69239;BME280;56349;51.816;-0.026;2023-05-29T08:28:04;102243.87;;;21.45;29.85
69239;BME280;56349;51.816;-0.026;2023-05-29T08:30:30;102248.15;;;21.50;29.88
69239;BME280;56349;51.816;-0.026;2023-05-29T08:32:56;102244.74;;;21.54;29.90
69239;BME280;56349;51.816;-0.026;2023-05-29T08:35:22;102243.42;;;21.41;29.87
69239;BME280;56349;51.816;-0.026;2023-05-29T08:37:47;102245.82;;;21.67;29.82
69239;BME280;56349;51.816;-0.026;2023-05-29T08:40:13;102243.26;;;21.48;30.01
69239;BME280;56349;51.816;-0.026;2023-05-29T08:42:45;102241.99;;;21.75;30.18
69239;BME280;56349;51.816;-0.026;2023-05-29T08:45:07;102244.32;;;21.58;30.24
69239;BME280;56349;51.816;-0.026;2023-05-29T08:47:33;102246.39;;;21.64;30.28
69239;BME280;56349;51.816;-0.026;2023-05-29T08:49:56;102239.57;;;21.72;30.28
69239;BME280;56349;51.816;-0.026;2023-05-29T08:52:23;102244.08;;;21.81;30.30
69239;BME280;56349;51.816;-0.026;2023-05-29T08:54:47;102238.41;;;21.91;30.07
69239;BME280;56349;51.816;-0.026;2023-05-29T08:57:13;102239.15;;;22.22;30.10
69239;BME280;56349;51.816;-0.026;2023-05-29T08:59:40;102241.72;;;21.85;30.19
69239;BME280;56349;51.816;-0.026;2023-05-29T09:02:03;102245.51;;;21.94;30.42
69239;BME280;56349;51.816;-0.026;2023-05-29T09:04:29;102244.32;;;22.23;30.52
69239;BME280;56349;51.816;-0.026;2023-05-29T09:06:55;102242.33;;;22.30;30.66
69239;BME280;56349;51.816;-0.026;2023-05-29T09:09:21;102246.28;;;22.36;30.68
69239;BME280;56349;51.816;-0.026;2023-05-29T09:11:47;102250.71;;;22.46;30.76
69239;BME280;56349;51.816;-0.026;2023-05-29T09:16:42;102254.69;;;22.56;30.86
69239;BME280;56349;51.816;-0.026;2023-05-29T09:19:06;102265.67;;;22.60;30.90
69239;BME280;56349;51.816;-0.026;2023-05-29T09:21:30;102264.98;;;22.39;29.59
69239;BME280;56349;51.816;-0.026;2023-05-29T09:24:03;102263.57;;;22.50;28.16
69239;BME280;56349;51.816;-0.026;2023-05-29T09:26:21;102261.54;;;22.31;27.68
69239;BME280;56349;51.816;-0.026;2023-05-29T09:28:45;102259.90;;;22.17;27.64
69239;BME280;56349;51.816;-0.026;2023-05-29T09:31:14;102262.98;;;22.16;28.31
69239;BME280;56349;51.816;-0.026;2023-05-29T09:33:46;102262.16;;;22.16;27.90
69239;BME280;56349;51.816;-0.026;2023-05-29T09:36:03;102261.46;;;22.11;27.17
69239;BME280;56349;51.816;-0.026;2023-05-29T09:38:30;102265.60;;;22.07;26.99
69239;BME280;56349;51.816;-0.026;2023-05-29T09:40:54;102260.34;;;22.07;27.36
69239;BME280;56349;51.816;-0.026;2023-05-29T09:43:20;102260.67;;;21.86;27.16
69239;BME280;56349;51.816;-0.026;2023-05-29T09:45:47;102258.57;;;22.07;26.87
69239;BME280;56349;51.816;-0.026;2023-05-29T09:48:14;102257.45;;;22.07;26.63
69239;BME280;56349;51.816;-0.026;2023-05-29T09:50:37;102256.62;;;22.07;26.67
69239;BME280;56349;51.816;-0.026;2023-05-29T09:53:03;102253.12;;;22.06;26.84
69239;BME280;56349;51.816;-0.026;2023-05-29T09:55:31;102248.15;;;22.11;27.00
69239;BME280;56349;51.816;-0.026;2023-05-29T09:57:54;102251.14;;;22.18;27.09
69239;BME280;56349;51.816;-0.026;2023-05-29T10:00:21;102248.69;;;22.26;27.06
69239;BME280;56349;51.816;-0.026;2023-05-29T10:02:46;102249.19;;;22.32;26.90
69239;BME280;56349;51.816;-0.026;2023-05-29T10:05:12;102252.68;;;22.37;26.77
69239;BME280;56349;51.816;-0.026;2023-05-29T10:07:37;102251.29;;;22.39;26.50
69239;BME280;56349;51.816;-0.026;2023-05-29T10:10:05;102250.26;;;22.42;26.30
69239;BME280;56349;51.816;-0.026;2023-05-29T10:12:29;102248.95;;;22.25;26.46
69239;BME280;56349;51.816;-0.026;2023-05-29T10:14:56;102246.57;;;22.51;26.46
69239;BME280;56349;51.816;-0.026;2023-05-29T10:17:25;102252.00;;;22.52;26.21
69239;BME280;56349;51.816;-0.026;2023-05-29T10:19:47;102251.63;;;22.33;26.13
69239;BME280;56349;51.816;-0.026;2023-05-29T10:22:12;102248.68;;;22.35;26.19
69239;BME280;56349;51.816;-0.026;2023-05-29T10:24:38;102257.18;;;22.59;26.36
69239;BME280;56349;51.816;-0.026;2023-05-29T10:27:04;102253.34;;;22.62;26.45
69239;BME280;56349;51.816;-0.026;2023-05-29T10:29:36;102255.29;;;22.67;26.55
69239;BME280;56349;51.816;-0.026;2023-05-29T10:32:05;102261.52;;;22.50;26.38
69239;BME280;56349;51.816;-0.026;2023-05-29T10:34:28;102260.63;;;22.54;26.22
69239;BME280;56349;51.816;-0.026;2023-05-29T10:36:52;102255.06;;;22.57;26.04
69239;BME280;56349;51.816;-0.026;2023-05-29T10:39:11;102255.95;;;22.82;26.20
69239;BME280;56349;51.816;-0.026;2023-05-29T10:41:37;102254.24;;;22.85;26.32
69239;BME280;56349;51.816;-0.026;2023-05-29T10:44:03;102256.89;;;22.89;26.50
69239;BME280;56349;51.816;-0.026;2023-05-29T10:48:54;102251.37;;;22.52;26.86
69239;BME280;56349;51.816;-0.026;2023-05-29T10:51:24;102250.41;;;22.60;27.12
69239;BME280;56349;51.816;-0.026;2023-05-29T10:53:44;102246.48;;;22.83;26.52
69239;BME280;56349;51.816;-0.026;2023-05-29T10:56:15;102241.42;;;22.53;26.39
69239;BME280;56349;51.816;-0.026;2023-05-29T10:58:35;102238.62;;;23.01;26.77
69239;BME280;56349;51.816;-0.026;2023-05-29T11:01:01;102242.83;;;22.55;27.11
69239;BME280;56349;51.816;-0.026;2023-05-29T11:03:30;102243.89;;;22.85;27.17
69239;BME280;56349;51.816;-0.026;2023-05-29T11:05:56;102237.29;;;22.57;26.65
69239;BME280;56349;51.816;-0.026;2023-05-29T11:10:44;102230.99;;;22.56;26.26
69239;BME280;56349;51.816;-0.026;2023-05-29T11:13:09;102237.14;;;22.59;26.40
69239;BME280;56349;51.816;-0.026;2023-05-29T11:15:36;102233.30;;;22.63;26.81
69239;BME280;56349;51.816;-0.026;2023-05-29T11:18:06;102232.52;;;22.67;27.05
69239;BME280;56349;51.816;-0.026;2023-05-29T11:20:33;102232.63;;;22.77;27.02
69239;BME280;56349;51.816;-0.026;2023-05-29T11:23:00;102237.19;;;22.87;26.87
69239;BME280;56349;51.816;-0.026;2023-05-29T11:25:19;102237.08;;;23.23;26.83
69239;BME280;56349;51.816;-0.026;2023-05-29T11:27:44;102235.37;;;23.13;27.05
69239;BME280;56349;51.816;-0.026;2023-05-29T11:30:10;102226.07;;;23.36;26.99
69239;BME280;56349;51.816;-0.026;2023-05-29T11:32:38;102224.72;;;23.42;26.92
69239;BME280;56349;51.816;-0.026;2023-05-29T11:35:05;102226.33;;;23.42;26.60
69239;BME280;56349;51.816;-0.026;2023-05-29T11:37:26;102231.57;;;23.71;26.48
69239;BME280;56349;51.816;-0.026;2023-05-29T11:39:52;102232.86;;;23.79;26.38
69239;BME280;56349;51.816;-0.026;2023-05-29T11:42:18;102233.70;;;24.35;25.81
69239;BME280;56349;51.816;-0.026;2023-05-29T11:44:44;102236.36;;;24.91;25.16
69239;BME280;56349;51.816;-0.026;2023-05-29T11:47:10;102236.00;;;24.73;25.23
69239;BME280;56349;51.816;-0.026;2023-05-29T11:49:37;102235.50;;;24.80;24.84
69239;BME280;56349;51.816;-0.026;2023-05-29T11:52:08;102235.27;;;24.80;24.60
69239;BME280;56349;51.816;-0.026;2023-05-29T11:54:27;102231.69;;;25.32;24.35
69239;BME280;56349;51.816;-0.026;2023-05-29T11:56:53;102227.98;;;25.28;23.84
69239;BME280;56349;51.816;-0.026;2023-05-29T11:59:19;102234.18;;;25.50;23.77
69239;BME280;56349;51.816;-0.026;2023-05-29T12:01:46;102234.26;;;25.48;23.48
69239;BME280;56349;51.816;-0.026;2023-05-29T12:04:15;102226.66;;;25.71;23.37
69239;BME280;56349;51.816;-0.026;2023-05-29T12:06:36;102230.26;;;25.92;23.36
69239;BME280;56349;51.816;-0.026;2023-05-29T12:09:02;102226.13;;;26.16;23.22
69239;BME280;56349;51.816;-0.026;2023-05-29T12:11:28;102230.11;;;26.18;23.39
69239;BME280;56349;51.816;-0.026;2023-05-29T12:13:57;102231.50;;;26.14;23.42
69239;BME280;56349;51.816;-0.026;2023-05-29T12:16:20;102233.24;;;26.32;23.31
69239;BME280;56349;51.816;-0.026;2023-05-29T12:18:46;102232.22;;;26.54;23.17
69239;BME280;56349;51.816;-0.026;2023-05-29T12:21:12;102226.54;;;26.74;22.94
69239;BME280;56349;51.816;-0.026;2023-05-29T12:23:38;102234.02;;;26.71;22.91
69239;BME280;56349;51.816;-0.026;2023-05-29T12:26:05;102230.40;;;27.05;22.84
69239;BME280;56349;51.816;-0.026;2023-05-29T12:28:30;102229.15;;;26.93;22.78
69239;BME280;56349;51.816;-0.026;2023-05-29T12:30:59;102231.29;;;27.24;22.73
69239;BME280;56349;51.816;-0.026;2023-05-29T12:33:27;102232.34;;;27.09;22.70
69239;BME280;56349;51.816;-0.026;2023-05-29T12:35:47;102239.12;;;27.42;22.72
69239;BME280;56349;51.816;-0.026;2023-05-29T12:38:13;102231.50;;;27.29;22.68